aviador You're here:

YBMA Decoded Metar

MOUNT ISA in AUSTRALIA
Report Time2018-02-17 23:00:00
UTC Time2018-02-17 23:37:45
Flight Rules vfr VFR
Wind010° at 10 kt
W.Decomp.*RWY 34: 9.1 kt HW 4.2 kt RCW
W.Rank010° ranks 17
Current wind is above 010° avg. (6.2)
Visibility9999 m
Phenomena:N/A
Clouds:N/A
Expected CloudBase > 6,400 ft AGL from Temp-Dew spread
CeilingNone
Temp33°C (ISA +20)
Dew Point17°C (38% RH)
Heat Index33.4°C
AAT31.7°C
QNH1010 hPa
Density Alt3,789 ft
Elevation1,129 ft
Report Wrong Elevation
Raw Report
YBMA 172300Z AUTO 01010KT 9999 // NCD 33/17 Q1010=

Extra information for YBMA:More info

Metar Taf Metar & Taf Last 4 Metars F.Rules Stats Wind Profile Meteogram Temp Stats Airport Information Weather charts Add Link Nearby VenuesMetar ALERT Operation Metar Decoded Social comments